Time;durP1;ratioP1;P1;durP2;ratioP2;P2;SDS_P1;SDS_P2;PMS_P1;PMS_P2;Temp;Humidity;BMP_temperature;BMP_pressure;BME280_temperature;BME280_humidity;BME280_pressure;Samples;Min_cycle;Max_cycle;Signal;HPM_P1;HPM_P2
2022/01/30 00:00:39;;;;;;;24.30;3.60;;;;;;;9.53;56.92;102870.50;4980484;28;20089;-57
2022/01/30 00:03:04;;;;;;;25.58;4.18;;;;;;;9.46;56.86;102873.63;4979333;28;20486;-58
2022/01/30 00:05:30;;;;;;;23.83;3.40;;;;;;;9.44;57.04;102870.06;4989631;28;20402;-59
2022/01/30 00:07:57;;;;;;;25.15;3.47;;;;;;;9.44;57.25;102874.38;4977420;28;20054;-57
2022/01/30 00:10:22;;;;;;;24.25;3.70;;;;;;;9.43;57.31;102876.09;4976076;28;20049;-57
2022/01/30 00:12:52;;;;;;;26.27;3.85;;;;;;;9.41;57.50;102875.09;4984436;28;20042;-58
2022/01/30 00:15:23;;;;;;;27.30;4.22;;;;;;;9.38;57.95;102868.88;4970702;28;20514;-57
2022/01/30 00:18:04;;;;;;;22.63;3.58;;;;;;;9.36;57.80;102869.69;4983163;28;20053;-59
2022/01/30 00:20:33;;;;;;;31.40;4.20;;;;;;;9.30;58.76;102869.38;4985400;28;20062;-59
2022/01/30 00:23:21;;;;;;;30.88;3.85;;;;;;;9.19;59.53;102877.47;4979247;28;20041;-57
2022/01/30 00:25:54;;;;;;;28.60;3.60;;;;;;;9.29;60.05;102887.50;4988255;28;20045;-57
2022/01/30 00:28:22;;;;;;;28.88;4.25;;;;;;;9.32;59.82;102892.88;4986444;28;20491;-58
2022/01/30 00:30:48;;;;;;;22.95;3.38;;;;;;;9.27;60.16;102887.41;4981203;28;20072;-58
2022/01/30 00:33:13;;;;;;;26.55;3.30;;;;;;;9.26;60.52;102892.56;4974325;28;20137;-58
2022/01/30 00:35:39;;;;;;;22.60;3.50;;;;;;;9.28;60.93;102898.72;4982054;28;20513;-58
2022/01/30 00:38:07;;;;;;;23.77;3.08;;;;;;;9.20;61.22;102905.28;4996958;28;20484;-59
2022/01/30 00:40:32;;;;;;;30.10;4.10;;;;;;;9.17;60.98;102899.91;4981072;28;20041;-56
2022/01/30 00:42:58;;;;;;;26.45;3.58;;;;;;;9.15;60.99;102905.00;4987163;28;20103;-56
2022/01/30 00:45:24;;;;;;;27.67;3.60;;;;;;;9.07;61.08;102900.25;4985298;28;20409;-57
2022/01/30 00:47:49;;;;;;;24.27;3.40;;;;;;;9.10;60.64;102903.88;4979077;28;20046;-57
2022/01/30 00:50:15;;;;;;;29.75;3.95;;;;;;;9.13;60.82;102903.16;4984570;28;20074;-59
2022/01/30 00:52:40;;;;;;;27.48;3.83;;;;;;;9.07;60.57;102902.84;4985473;28;20442;-58
2022/01/30 00:55:05;;;;;;;25.27;3.28;;;;;;;9.12;60.28;102902.28;4997268;28;20455;-56
2022/01/30 00:57:31;;;;;;;25.98;3.42;;;;;;;9.08;60.52;102904.66;4983930;28;20133;-57
2022/01/30 00:59:56;;;;;;;27.40;4.22;;;;;;;8.98;60.75;102905.84;4987878;28;20058;-57
2022/01/30 01:02:22;;;;;;;23.08;3.20;;;;;;;9.04;60.79;102905.28;4985874;28;20405;-58
2022/01/30 01:04:48;;;;;;;24.95;3.45;;;;;;;9.05;60.94;102899.28;4985852;28;20081;-59
2022/01/30 01:07:22;;;;;;;21.17;3.53;;;;;;;9.00;60.84;102905.94;4981481;28;20036;-59
2022/01/30 01:10:00;;;;;;;24.52;3.78;;;;;;;8.95;61.29;102906.63;4981584;28;21713;-57
2022/01/30 01:25:48;;;;;;;22.23;3.47;;;;;;;8.93;60.64;102917.75;4993183;28;20044;-59
2022/01/30 01:28:13;;;;;;;23.77;3.78;;;;;;;8.85;60.54;102916.44;4989575;28;20053;-57
2022/01/30 01:30:38;;;;;;;30.55;3.63;;;;;;;8.84;60.47;102927.69;4983301;28;20417;-56
2022/01/30 01:33:04;;;;;;;28.85;3.17;;;;;;;8.76;60.53;102926.38;4982218;28;20099;-58
2022/01/30 01:35:30;;;;;;;22.73;3.50;;;;;;;8.77;60.36;102926.44;4984668;28;20049;-58
2022/01/30 01:37:55;;;;;;;28.52;3.70;;;;;;;8.73;59.84;102921.88;4982131;28;20614;-56
2022/01/30 01:40:21;;;;;;;22.30;3.15;;;;;;;8.73;60.08;102920.97;4982936;28;21235;-58
2022/01/30 01:42:47;;;;;;;28.65;3.55;;;;;;;8.76;59.29;102922.06;4983979;28;20038;-57
2022/01/30 01:45:19;;;;;;;20.08;3.10;;;;;;;8.78;58.64;102919.53;4981066;28;20068;-58
2022/01/30 01:47:44;;;;;;;21.75;3.40;;;;;;;8.76;58.52;102929.84;4984036;28;20069;-57
2022/01/30 01:50:16;;;;;;;16.92;2.65;;;;;;;8.73;58.75;102924.47;4982943;28;20177;-57
2022/01/30 01:52:42;;;;;;;25.48;3.30;;;;;;;8.85;58.25;102929.44;4986824;28;20369;-57
2022/01/30 01:55:08;;;;;;;26.83;3.35;;;;;;;8.87;58.21;102927.81;4976787;28;20180;-56
2022/01/30 01:57:33;;;;;;;22.52;2.83;;;;;;;8.94;58.23;102928.22;4983480;28;20041;-58
2022/01/30 01:59:59;;;;;;;18.63;3.10;;;;;;;8.91;58.66;102927.16;4985751;28;20077;-57
2022/01/30 02:02:26;;;;;;;26.23;3.20;;;;;;;9.12;58.42;102930.91;4981659;28;20571;-58
2022/01/30 02:04:51;;;;;;;24.75;3.05;;;;;;;9.25;58.04;102935.91;4980472;28;20595;-58
2022/01/30 02:09:45;;;;;;;20.88;2.72;;;;;;;9.31;58.21;102937.94;4991908;28;20049;-58
2022/01/30 02:12:17;;;;;;;31.88;3.28;;;;;;;9.28;58.19;102942.97;4991238;28;20108;-57
2022/01/30 02:15:43;;;;;;;21.40;2.70;;;;;;;9.45;57.97;102939.56;4984412;28;20463;-57
2022/01/30 02:25:48;;;;;;;19.88;2.70;;;;;;;9.32;57.85;102940.63;4984761;28;20061;-57
2022/01/30 02:28:17;;;;;;;23.15;2.88;;;;;;;9.09;59.01;102940.25;4986703;28;20050;-57
2022/01/30 02:30:58;;;;;;;19.60;3.05;;;;;;;9.00;59.62;102939.78;4982391;28;20046;-58
2022/01/30 02:33:23;;;;;;;24.83;3.15;;;;;;;9.02;59.59;102951.16;4973394;28;20056;-57
2022/01/30 02:35:49;;;;;;;22.77;2.75;;;;;;;9.06;59.69;102945.28;4982437;28;20388;-57
2022/01/30 02:38:17;;;;;;;19.20;3.00;;;;;;;9.09;59.39;102943.72;4979415;28;20076;-57
2022/01/30 02:40:45;;;;;;;19.90;2.60;;;;;;;9.06;59.49;102942.69;4987288;28;20049;-56
2022/01/30 02:43:12;;;;;;;24.95;3.35;;;;;;;9.03;59.81;102939.91;4979320;28;20061;-58
2022/01/30 02:45:44;;;;;;;25.35;2.80;;;;;;;8.86;60.30;102932.13;4980735;28;20461;-57
2022/01/30 02:50:50;;;;;;;19.50;2.88;;;;;;;8.74;60.08;102935.78;4983887;28;20042;-57
2022/01/30 02:53:16;;;;;;;20.73;2.28;;;;;;;8.79;59.33;102932.59;4973862;28;20409;-59
2022/01/30 02:55:41;;;;;;;20.77;2.83;;;;;;;8.86;59.35;102928.63;4986448;28;20152;-57
2022/01/30 02:58:06;;;;;;;16.85;2.22;;;;;;;8.93;59.03;102934.25;4989104;28;20101;-57
2022/01/30 03:00:32;;;;;;;20.00;2.70;;;;;;;9.11;58.64;102933.41;4986963;28;20469;-57
2022/01/30 03:02:58;;;;;;;19.50;2.78;;;;;;;9.16;58.46;102934.53;4983821;28;20046;-58
2022/01/30 03:05:23;;;;;;;23.63;2.90;;;;;;;9.26;57.90;102936.81;4982131;28;20283;-59
2022/01/30 03:07:48;;;;;;;28.15;3.17;;;;;;;9.25;58.12;102925.50;4983794;28;20359;-60
2022/01/30 03:10:14;;;;;;;24.15;2.88;;;;;;;9.19;58.81;102925.19;4989322;28;20066;-60
2022/01/30 03:12:40;;;;;;;16.42;2.75;;;;;;;9.18;58.62;102928.59;4984828;28;20069;-58
2022/01/30 03:15:06;;;;;;;21.90;3.17;;;;;;;9.17;58.49;102936.34;4976490;28;20152;-58
2022/01/30 03:17:31;;;;;;;22.88;2.88;;;;;;;9.11;58.73;102936.00;4979297;28;20068;-58
2022/01/30 03:19:56;;;;;;;24.77;3.70;;;;;;;9.08;58.94;102941.97;4983037;28;20038;-58
2022/01/30 03:22:23;;;;;;;26.33;3.38;;;;;;;9.03;58.79;102953.81;4986749;28;20048;-59
2022/01/30 03:24:48;;;;;;;23.52;2.90;;;;;;;8.87;58.92;102956.44;4986678;28;20038;-58
2022/01/30 03:27:14;;;;;;;18.02;2.75;;;;;;;8.88;58.50;102958.22;4974164;28;20049;-58
2022/01/30 03:29:41;;;;;;;17.48;2.75;;;;;;;8.95;57.45;102962.94;4984767;28;20069;-58
2022/01/30 03:32:07;;;;;;;17.95;3.00;;;;;;;8.92;57.06;102980.97;4986081;28;20107;-59
2022/01/30 03:34:32;;;;;;;18.42;2.08;;;;;;;8.83;56.12;102970.09;4985781;28;20050;-58
2022/01/30 03:36:58;;;;;;;17.52;2.17;;;;;;;9.02;54.67;102978.06;4981329;28;20936;-58
2022/01/30 03:39:24;;;;;;;15.40;1.92;;;;;;;9.35;54.27;102978.91;4981313;28;20603;-58
2022/01/30 03:41:49;;;;;;;13.95;1.92;;;;;;;9.41;53.79;102980.94;4984427;28;20038;-58
2022/01/30 03:44:15;;;;;;;10.13;2.20;;;;;;;9.38;52.59;102965.19;4984799;28;20062;-59
2022/01/30 03:46:40;;;;;;;14.73;1.77;;;;;;;9.40;52.53;102974.84;4986217;28;20342;-58
2022/01/30 03:49:06;;;;;;;15.10;2.03;;;;;;;9.25;52.02;102968.88;4972892;28;20056;-58
2022/01/30 03:51:31;;;;;;;12.25;1.98;;;;;;;9.06;52.38;102972.22;4980021;28;20077;-58
2022/01/30 03:53:56;;;;;;;11.68;1.77;;;;;;;9.13;52.76;102963.91;4987881;28;20486;-59
2022/01/30 03:56:22;;;;;;;16.27;2.40;;;;;;;9.04;52.74;102970.31;4983684;28;20052;-58
2022/01/30 03:58:47;;;;;;;9.63;1.90;;;;;;;9.07;53.13;102980.91;4999163;28;20050;-59
2022/01/30 04:01:12;;;;;;;15.82;2.42;;;;;;;9.12;53.77;102977.72;4980658;28;20038;-58
2022/01/30 04:03:38;;;;;;;15.40;2.15;;;;;;;9.10;53.60;102989.75;4981394;28;20230;-59
2022/01/30 04:06:12;;;;;;;16.98;2.65;;;;;;;9.08;54.19;102975.78;4986191;28;20118;-58
2022/01/30 04:08:38;;;;;;;15.55;2.45;;;;;;;9.32;54.12;102974.47;4987395;28;20050;-57
2022/01/30 04:11:04;;;;;;;18.50;2.35;;;;;;;9.38;54.06;102971.28;4979962;28;20041;-60
2022/01/30 04:13:30;;;;;;;15.18;2.20;;;;;;;9.43;54.42;102981.94;4987534;28;20128;-58
2022/01/30 04:15:55;;;;;;;14.98;2.33;;;;;;;9.43;54.89;102975.00;4987062;28;20070;-58
2022/01/30 04:18:21;;;;;;;12.32;2.00;;;;;;;9.41;54.60;102980.94;4984590;28;20046;-59
2022/01/30 04:20:47;;;;;;;19.48;2.15;;;;;;;9.29;54.97;102968.19;4984700;28;20160;-58
2022/01/30 04:23:13;;;;;;;19.33;2.53;;;;;;;9.16;55.91;102979.66;4974634;28;20042;-59
2022/01/30 04:25:38;;;;;;;18.08;2.35;;;;;;;9.20;55.75;102981.66;4978460;28;20084;-58
2022/01/30 04:28:04;;;;;;;18.27;2.42;;;;;;;8.99;56.74;102982.19;4985515;28;20050;-59
2022/01/30 04:30:29;;;;;;;18.00;2.40;;;;;;;9.00;56.24;102984.91;4987637;28;20041;-59
2022/01/30 04:32:55;;;;;;;18.67;3.17;;;;;;;9.01;55.71;102981.47;4984068;28;20104;-57
2022/01/30 04:35:26;;;;;;;18.17;2.40;;;;;;;8.86;56.05;102986.75;4974979;28;20061;-58
2022/01/30 05:04:23;;;;;;;21.67;2.70;;;;;;;8.50;56.60;103008.13;4983751;28;20045;-58
2022/01/30 05:09:41;;;;;;;17.92;2.67;;;;;;;8.42;56.89;103017.19;4966769;28;22149;-59
2022/01/30 05:12:07;;;;;;;18.33;2.47;;;;;;;8.35;56.71;103015.09;4990938;28;20396;-60
2022/01/30 05:14:35;;;;;;;22.25;2.53;;;;;;;8.40;56.89;103026.63;4981335;28;20049;-58
2022/01/30 05:17:02;;;;;;;19.45;2.72;;;;;;;8.35;56.94;103021.19;4977424;28;20052;-61
2022/01/30 05:19:27;;;;;;;18.48;2.15;;;;;;;8.31;56.98;103026.09;4989560;28;20037;-59
2022/01/30 05:21:53;;;;;;;14.57;2.88;;;;;;;8.26;56.83;103028.41;4988200;28;20186;-59
2022/01/30 05:24:19;;;;;;;24.92;2.50;;;;;;;8.25;55.92;103023.13;4983719;28;20050;-59
2022/01/30 05:26:45;;;;;;;23.38;2.22;;;;;;;8.40;55.15;103027.53;4978011;28;20053;-59
2022/01/30 05:29:11;;;;;;;18.42;2.45;;;;;;;8.44;54.65;103036.38;4976377;28;20050;-58
2022/01/30 05:31:37;;;;;;;16.67;2.50;;;;;;;8.37;54.70;103027.34;4985089;28;20054;-58
2022/01/30 05:34:03;;;;;;;16.88;2.47;;;;;;;8.49;54.15;103041.03;4989897;28;20559;-58
2022/01/30 05:36:30;;;;;;;17.25;2.35;;;;;;;8.48;54.01;103057.44;4988203;28;20076;-58
2022/01/30 05:38:55;;;;;;;17.88;2.33;;;;;;;8.46;53.79;103047.78;4983199;28;20501;-58
2022/01/30 05:41:21;;;;;;;14.93;2.40;;;;;;;8.58;53.22;103051.06;4982643;28;20054;-58
2022/01/30 05:43:50;;;;;;;20.38;2.35;;;;;;;8.54;52.99;103059.47;4985997;28;20042;-58
2022/01/30 05:46:28;;;;;;;16.73;2.65;;;;;;;8.57;53.47;103070.06;4986960;28;20057;-59
2022/01/30 05:48:55;;;;;;;21.42;2.72;;;;;;;8.65;53.55;103067.91;4982457;28;20490;-59
2022/01/30 05:51:20;;;;;;;16.70;2.55;;;;;;;8.72;53.72;103078.72;4985937;28;21600;-60
2022/01/30 05:53:45;;;;;;;21.52;2.53;;;;;;;8.64;54.46;103082.63;4988422;28;20056;-58
2022/01/30 05:56:12;;;;;;;24.55;2.70;;;;;;;8.61;54.52;103090.22;4986162;28;20038;-59
2022/01/30 05:58:38;;;;;;;15.43;2.70;;;;;;;8.63;54.57;103087.72;4985113;28;20046;-58
2022/01/30 06:01:03;;;;;;;17.88;2.35;;;;;;;8.73;54.12;103106.53;4980687;28;20088;-59
2022/01/30 06:03:30;;;;;;;22.02;3.10;;;;;;;8.70;54.61;103095.97;4983284;28;20077;-60
2022/01/30 06:05:56;;;;;;;15.55;2.38;;;;;;;8.71;54.24;103102.06;4986974;28;20054;-58
2022/01/30 06:08:40;;;;;;;21.60;2.42;;;;;;;8.68;54.45;103109.66;5003961;28;20064;-59
2022/01/30 06:11:07;;;;;;;24.38;3.25;;;;;;;8.66;54.38;103106.97;4982492;28;20049;-59
2022/01/30 06:13:32;;;;;;;21.92;2.83;;;;;;;8.63;54.44;103104.22;4979001;28;20085;-59
2022/01/30 06:15:58;;;;;;;23.15;2.97;;;;;;;8.57;54.41;103102.97;4984163;28;20057;-59
2022/01/30 06:18:24;;;;;;;21.10;3.20;;;;;;;8.54;54.36;103101.09;4987268;28;20577;-58
2022/01/30 06:20:49;;;;;;;22.02;3.38;;;;;;;8.50;54.64;103104.31;4984825;28;20061;-58
2022/01/30 06:23:15;;;;;;;16.08;2.53;;;;;;;8.41;55.37;103111.63;4980959;28;20268;-58
2022/01/30 06:25:40;;;;;;;25.48;3.00;;;;;;;8.31;55.39;103110.16;4984723;28;20520;-59
2022/01/30 06:28:06;;;;;;;20.13;3.00;;;;;;;8.13;55.80;103115.16;4987104;28;20046;-59
2022/01/30 06:30:31;;;;;;;19.15;3.28;;;;;;;8.16;55.43;103117.06;4986934;28;20073;-60
2022/01/30 06:32:57;;;;;;;21.08;2.85;;;;;;;8.02;55.63;103129.22;4984835;28;20409;-58
2022/01/30 06:35:22;;;;;;;22.73;3.50;;;;;;;7.89;56.49;103128.38;4983403;28;20529;-59
2022/01/30 06:37:47;;;;;;;21.05;2.88;;;;;;;7.97;55.81;103129.75;4983448;28;20040;-59
2022/01/30 06:40:13;;;;;;;21.05;3.33;;;;;;;7.83;56.27;103125.41;4985608;28;20044;-60
2022/01/30 06:42:39;;;;;;;18.27;3.03;;;;;;;7.74;56.34;103124.03;4986536;28;20033;-58
2022/01/30 06:45:05;;;;;;;26.75;3.38;;;;;;;7.75;56.43;103128.44;4980284;28;20053;-59
2022/01/30 06:47:31;;;;;;;19.10;3.03;;;;;;;7.74;56.38;103126.66;4986558;28;20489;-59
2022/01/30 06:49:56;;;;;;;20.48;2.88;;;;;;;7.80;56.23;103133.03;4980824;28;20041;-59
2022/01/30 06:52:21;;;;;;;25.13;3.05;;;;;;;7.75;56.59;103125.84;4988959;28;20037;-58
2022/01/30 06:54:47;;;;;;;18.20;3.13;;;;;;;7.73;56.94;103126.56;4990068;28;20049;-59
2022/01/30 06:57:12;;;;;;;20.17;3.25;;;;;;;7.75;56.85;103123.25;4978263;28;20196;-58
2022/01/30 06:59:38;;;;;;;34.10;3.42;;;;;;;7.68;56.94;103115.03;4979083;28;20509;-59
2022/01/30 07:02:03;;;;;;;23.02;2.92;;;;;;;7.62;56.89;103112.91;4977523;28;20053;-59
2022/01/30 07:04:29;;;;;;;26.95;3.17;;;;;;;7.63;56.84;103116.41;4986584;28;20469;-60
2022/01/30 07:06:54;;;;;;;19.55;3.47;;;;;;;7.61;56.98;103124.13;4980988;28;20522;-59
2022/01/30 07:09:21;;;;;;;25.92;3.20;;;;;;;7.60;56.93;103131.81;4983398;28;20076;-59
2022/01/30 07:11:46;;;;;;;22.60;3.00;;;;;;;7.60;56.92;103147.41;4990879;28;20041;-60
2022/01/30 07:14:12;;;;;;;20.45;2.85;;;;;;;7.58;57.04;103138.59;4987523;28;20065;-58
2022/01/30 07:16:37;;;;;;;26.83;3.25;;;;;;;7.40;57.26;103153.03;4987304;28;20432;-58
2022/01/30 07:19:02;;;;;;;20.13;3.30;;;;;;;7.42;57.68;103164.44;4982635;28;20049;-58
2022/01/30 07:21:28;;;;;;;29.05;3.50;;;;;;;7.29;57.82;103166.25;4981136;28;20038;-59
2022/01/30 07:23:53;;;;;;;25.85;3.28;;;;;;;7.49;57.58;103166.59;4980824;28;20089;-58
2022/01/30 07:26:18;;;;;;;28.60;3.45;;;;;;;7.54;57.59;103167.78;4986710;28;20085;-60
2022/01/30 07:28:44;;;;;;;26.00;3.00;;;;;;;7.67;57.52;103172.94;4987119;28;20099;-56
2022/01/30 07:31:10;;;;;;;26.67;2.80;;;;;;;7.78;57.65;103179.69;4979338;28;20050;-59
2022/01/30 07:33:39;;;;;;;22.02;3.28;;;;;;;7.83;57.63;103177.34;4983703;28;20704;-58
2022/01/30 07:36:05;;;;;;;22.85;2.70;;;;;;;7.86;57.88;103177.56;4986094;28;20583;-59
2022/01/30 07:38:30;;;;;;;30.15;3.45;;;;;;;8.01;57.44;103181.06;4984057;28;20081;-58
2022/01/30 07:40:57;;;;;;;23.90;3.10;;;;;;;8.03;57.63;103174.28;4986928;28;20041;-56
2022/01/30 07:43:22;;;;;;;26.83;3.28;;;;;;;8.11;57.75;103171.31;4982302;28;20416;-56
2022/01/30 07:45:47;;;;;;;19.65;2.97;;;;;;;8.18;57.64;103169.06;4985333;28;20041;-59
2022/01/30 07:48:15;;;;;;;22.50;3.10;;;;;;;8.22;57.76;103171.97;4983826;28;20128;-58
2022/01/30 07:50:40;;;;;;;27.52;3.63;;;;;;;8.24;57.60;103174.63;5000575;28;20145;-58
2022/01/30 07:53:06;;;;;;;28.92;3.45;;;;;;;8.44;56.70;103162.06;4979878;28;20416;-56
2022/01/30 07:55:31;;;;;;;23.83;3.47;;;;;;;8.52;56.18;103167.72;4989120;28;20046;-58
2022/01/30 07:57:56;;;;;;;18.02;3.08;;;;;;;8.69;56.13;103160.88;4980413;28;20438;-59
2022/01/30 08:00:22;;;;;;;21.35;3.40;;;;;;;8.72;55.74;103164.53;4985673;28;20042;-59
2022/01/30 08:02:48;;;;;;;27.85;3.45;;;;;;;8.80;55.51;103164.97;4986380;28;20033;-58
2022/01/30 08:05:13;;;;;;;20.70;3.40;;;;;;;8.94;55.51;103164.97;4976880;28;20046;-60
2022/01/30 08:07:39;;;;;;;23.17;3.05;;;;;;;8.90;55.17;103172.53;4984769;28;20052;-58
2022/01/30 08:10:04;;;;;;;24.85;3.45;;;;;;;8.96;55.42;103176.34;4988307;28;20038;-59
2022/01/30 08:12:30;;;;;;;24.20;3.30;;;;;;;9.10;54.70;103171.00;4985538;28;20133;-58
2022/01/30 08:14:56;;;;;;;26.25;3.40;;;;;;;9.09;54.84;103169.25;4990702;28;20508;-57
2022/01/30 08:17:23;;;;;;;25.42;2.72;;;;;;;9.02;55.49;103178.41;4980884;28;22220;-58
2022/01/30 08:19:49;;;;;;;25.40;3.00;;;;;;;9.19;54.99;103169.84;5007870;28;20038;-59
2022/01/30 08:22:15;;;;;;;19.92;3.28;;;;;;;9.36;54.95;103171.66;4986962;28;20048;-58
2022/01/30 08:24:40;;;;;;;23.30;3.13;;;;;;;9.46;54.40;103174.75;4989361;28;20425;-58
2022/01/30 08:27:06;;;;;;;20.80;3.10;;;;;;;9.54;54.60;103187.38;4978513;28;20076;-56
2022/01/30 08:29:32;;;;;;;23.17;3.67;;;;;;;9.64;54.48;103179.22;4991633;28;20048;-58
2022/01/30 08:31:58;;;;;;;26.08;2.95;;;;;;;9.66;54.27;103176.72;5003432;28;20073;-59
2022/01/30 08:34:24;;;;;;;24.15;3.03;;;;;;;9.60;54.56;103177.28;4989914;28;20045;-59
2022/01/30 08:36:50;;;;;;;28.77;3.42;;;;;;;9.63;54.78;103181.78;4991498;28;20513;-58
2022/01/30 08:39:16;;;;;;;31.40;3.70;;;;;;;9.66;55.01;103184.53;4981267;28;20657;-59
2022/01/30 08:41:41;;;;;;;26.85;3.20;;;;;;;9.68;54.71;103185.53;4990598;28;20042;-59
2022/01/30 08:44:06;;;;;;;27.33;3.45;;;;;;;9.81;54.64;103187.97;4983196;28;20046;-59
2022/01/30 08:46:32;;;;;;;28.10;3.42;;;;;;;9.90;54.72;103193.66;4988753;28;20045;-59
2022/01/30 08:48:57;;;;;;;22.17;3.35;;;;;;;9.90;54.14;103191.06;4984467;28;20495;-59
2022/01/30 08:51:23;;;;;;;26.85;3.53;;;;;;;9.95;54.63;103186.97;4980221;28;20096;-59
2022/01/30 08:53:48;;;;;;;24.25;3.25;;;;;;;9.90;54.62;103182.34;4989279;28;20077;-59
2022/01/30 08:56:14;;;;;;;24.92;3.38;;;;;;;9.96;53.84;103180.94;4985031;28;21019;-59
2022/01/30 08:58:39;;;;;;;23.77;3.03;;;;;;;10.04;53.66;103184.88;4988106;28;20052;-59
2022/01/30 09:01:05;;;;;;;24.48;3.33;;;;;;;10.14;53.08;103184.50;4984919;28;20397;-59
2022/01/30 09:03:30;;;;;;;24.35;2.88;;;;;;;10.26;52.77;103194.72;4988064;28;20347;-59
2022/01/30 09:05:56;;;;;;;20.85;3.20;;;;;;;10.39;52.37;103185.81;4988443;28;20199;-59
2022/01/30 09:08:21;;;;;;;21.00;3.22;;;;;;;10.69;52.22;103194.28;4987822;28;20056;-59
2022/01/30 09:10:46;;;;;;;22.02;3.25;;;;;;;10.82;52.02;103197.56;4987466;28;20037;-59
2022/01/30 09:13:12;;;;;;;26.45;3.45;;;;;;;10.76;51.45;103201.59;4979562;28;20124;-58
2022/01/30 09:15:41;;;;;;;21.85;3.08;;;;;;;10.72;51.16;103212.69;4984824;28;20041;-60
2022/01/30 09:18:10;;;;;;;25.67;3.65;;;;;;;10.60;51.23;103215.59;4992512;28;20503;-59
2022/01/30 09:20:41;;;;;;;24.20;3.33;;;;;;;10.80;51.06;103214.84;4987856;28;20337;-59
2022/01/30 09:23:08;;;;;;;25.20;3.53;;;;;;;10.78;50.44;103216.50;4980864;28;20128;-59
2022/01/30 09:25:33;;;;;;;28.00;3.08;;;;;;;10.86;50.14;103227.31;4978242;28;20398;-59
2022/01/30 09:27:59;;;;;;;20.35;3.22;;;;;;;10.93;50.03;103232.91;4985037;28;20117;-58
2022/01/30 09:30:24;;;;;;;25.75;3.17;;;;;;;11.01;49.93;103230.69;4989449;28;20058;-60
2022/01/30 09:32:49;;;;;;;20.83;2.75;;;;;;;11.10;50.32;103241.56;4989217;28;20048;-58
2022/01/30 09:35:15;;;;;;;31.98;3.60;;;;;;;11.14;50.25;103233.09;4977674;28;20070;-59
2022/01/30 09:37:40;;;;;;;20.92;2.95;;;;;;;11.19;49.93;103234.19;4991585;28;20060;-60
2022/01/30 09:40:07;;;;;;;24.08;3.28;;;;;;;11.23;50.63;103235.22;4980485;28;20096;-59
2022/01/30 09:42:32;;;;;;;24.05;3.20;;;;;;;11.30;49.92;103237.31;4986460;28;20498;-59
2022/01/30 09:45:03;;;;;;;23.75;3.58;;;;;;;11.22;50.17;103236.06;4974786;28;20064;-58
2022/01/30 09:47:29;;;;;;;23.10;3.53;;;;;;;11.14;50.61;103240.00;4988372;28;20545;-59
2022/01/30 09:49:55;;;;;;;25.73;3.58;;;;;;;11.19;50.59;103230.69;4983790;28;20561;-58
2022/01/30 09:52:20;;;;;;;24.98;3.55;;;;;;;11.07;51.40;103225.75;4983157;28;20057;-59
2022/01/30 09:54:47;;;;;;;26.65;3.50;;;;;;;11.12;51.14;103232.09;4986976;28;20048;-59
2022/01/30 09:57:13;;;;;;;24.52;3.35;;;;;;;11.23;51.27;103236.13;4978666;28;20113;-60
2022/01/30 09:59:39;;;;;;;22.90;3.85;;;;;;;11.46;51.08;103232.00;4982674;28;20046;-59
2022/01/30 10:02:05;;;;;;;22.80;3.47;;;;;;;11.57;50.90;103233.41;4989382;28;20108;-60
2022/01/30 10:04:31;;;;;;;23.67;3.30;;;;;;;11.43;50.30;103226.63;4996467;28;20049;-59
2022/01/30 10:07:10;;;;;;;28.80;3.70;;;;;;;11.31;50.88;103224.34;4987546;28;20050;-59
2022/01/30 10:09:42;;;;;;;24.67;3.60;;;;;;;11.13;50.66;103238.22;4978068;28;20578;-60
2022/01/30 10:12:16;;;;;;;36.30;3.72;;;;;;;11.00;50.52;103236.72;4990102;28;20049;-59
2022/01/30 10:15:16;;;;;;;27.13;3.50;;;;;;;10.94;50.75;103245.16;4985993;28;20048;-59
2022/01/30 10:17:47;;;;;;;26.23;3.78;;;;;;;10.75;50.61;103241.53;4984006;28;20129;-60
2022/01/30 10:20:17;;;;;;;27.05;3.25;;;;;;;10.78;50.58;103240.00;4981559;28;20054;-60
2022/01/30 10:22:48;;;;;;;27.00;3.65;;;;;;;10.88;50.31;103247.44;4988042;28;20076;-58
2022/01/30 10:25:22;;;;;;;22.60;3.35;;;;;;;10.94;50.53;103258.19;4988193;28;20112;-58
2022/01/30 10:27:48;;;;;;;;;;;;;;;10.95;50.31;103251.28;4988419;28;20476;-59
2022/01/30 10:30:19;;;;;;;27.15;3.47;;;;;;;10.90;50.69;103258.88;4988584;28;19921;-59
2022/01/30 10:32:56;;;;;;;26.15;3.20;;;;;;;10.86;50.95;103253.41;4978740;28;20041;-59
2022/01/30 10:35:22;;;;;;;23.75;3.60;;;;;;;10.82;50.43;103254.06;4977459;28;20049;-58
2022/01/30 10:37:48;;;;;;;26.75;4.55;;;;;;;10.93;50.88;103250.28;4984767;28;20045;-59
2022/01/30 10:40:18;;;;;;;24.50;3.20;;;;;;;11.02;50.59;103257.69;4981312;28;20061;-60
2022/01/30 10:42:52;;;;;;;30.13;3.45;;;;;;;11.15;49.35;103258.38;4982198;28;20382;-59
2022/01/30 10:45:27;;;;;;;23.30;3.70;;;;;;;11.28;48.75;103252.91;4985863;28;20393;-59
2022/01/30 10:48:23;;;;;;;21.60;3.10;;;;;;;11.27;46.76;103252.84;4983613;28;20084;-59
2022/01/30 10:50:49;;;;;;;20.90;3.05;;;;;;;11.32;45.70;103257.47;4976459;28;20042;-58
2022/01/30 10:53:24;;;;;;;25.05;3.15;;;;;;;11.23;46.33;103249.19;4977595;28;20045;-59
2022/01/30 10:55:50;;;;;;;27.05;3.30;;;;;;;11.29;46.92;103256.41;4982808;28;20164;-60
2022/01/30 10:58:18;;;;;;;24.40;3.25;;;;;;;11.11;47.50;103253.81;4985266;28;20398;-59
2022/01/30 11:00:52;;;;;;;28.60;4.00;;;;;;;11.31;48.03;103254.78;4989801;28;20038;-59
2022/01/30 11:03:55;;;;;;;23.15;3.60;;;;;;;11.32;48.69;103257.47;4982701;28;20050;-59
2022/01/30 11:06:20;;;;;;;23.25;3.67;;;;;;;11.43;48.20;103268.41;4909350;29;20059;-59
2022/01/30 11:08:49;;;;;;;26.08;3.75;;;;;;;11.28;47.70;103263.34;4972482;28;20441;-59
2022/01/30 11:14:35;;;;;;;20.75;3.30;;;;;;;11.68;48.37;103266.16;4989866;28;20481;-60
2022/01/30 11:17:03;;;;;;;28.08;3.42;;;;;;;11.69;47.98;103262.72;4984984;28;20034;-58
2022/01/30 11:19:31;;;;;;;34.67;3.92;;;;;;;11.88;47.39;103253.16;4992525;28;20041;-60
2022/01/30 11:22:01;;;;;;;26.35;4.03;;;;;;;11.88;47.23;103263.59;4985231;28;20503;-59
2022/01/30 11:24:27;;;;;;;24.73;3.83;;;;;;;12.02;46.60;103257.25;4980796;28;20052;-58
2022/01/30 11:26:53;;;;;;;19.83;3.25;;;;;;;12.02;45.95;103254.66;4982310;28;20580;-60
2022/01/30 11:29:20;;;;;;;29.13;3.70;;;;;;;12.07;45.72;103254.06;4981620;28;20093;-59
2022/01/30 11:31:46;;;;;;;29.50;4.13;;;;;;;12.23;45.89;103252.13;4982203;28;20094;-58
2022/01/30 11:34:12;;;;;;;29.83;3.92;;;;;;;12.22;46.29;103255.56;4986243;28;20418;-59
2022/01/30 11:36:40;;;;;;;26.80;3.50;;;;;;;12.16;46.65;103257.06;4988557;28;20045;-59
2022/01/30 11:39:06;;;;;;;22.23;3.90;;;;;;;11.99;46.82;103246.69;4975143;28;20039;-62
2022/01/30 11:41:34;;;;;;;28.88;4.28;;;;;;;11.67;44.75;103253.91;4979212;28;20042;-59
2022/01/30 11:44:17;;;;;;;25.02;4.15;;;;;;;11.64;44.87;103252.88;4987921;28;20406;-59
2022/01/30 11:46:52;;;;;;;24.45;4.10;;;;;;;11.13;46.36;103251.28;4988430;28;20135;-59
2022/01/30 11:49:18;;;;;;;23.98;3.83;;;;;;;11.29;47.10;103244.25;4975122;28;20069;-59
2022/01/30 11:51:58;;;;;;;28.05;3.97;;;;;;;11.11;47.21;103245.06;4988477;28;20118;-59
2022/01/30 11:54:42;;;;;;;24.10;3.53;;;;;;;10.92;47.87;103244.16;4986538;28;20046;-59
2022/01/30 11:57:20;;;;;;;28.33;3.92;;;;;;;10.68;48.75;103242.03;4976309;28;20040;-57
2022/01/30 11:59:50;;;;;;;24.13;3.40;;;;;;;10.55;49.09;103238.81;4986260;28;20556;-59
2022/01/30 12:02:22;;;;;;;25.65;3.88;;;;;;;10.52;49.37;103233.47;4986517;28;20033;-59
2022/01/30 12:04:55;;;;;;;23.83;3.95;;;;;;;10.61;49.73;103226.94;4982327;28;20516;-58
2022/01/30 12:07:40;;;;;;;29.20;3.67;;;;;;;10.84;49.26;103224.66;4979130;28;20069;-57
2022/01/30 12:10:21;;;;;;;26.65;3.85;;;;;;;11.03;48.76;103228.16;4988258;28;20037;-57
2022/01/30 12:12:52;;;;;;;22.60;3.40;;;;;;;11.26;48.49;103214.50;4988203;28;20037;-58
2022/01/30 12:15:36;;;;;;;22.77;3.70;;;;;;;11.56;48.06;103215.03;4981553;28;20050;-58
2022/01/30 12:18:12;;;;;;;30.75;4.10;;;;;;;11.64;48.85;103221.53;4987189;28;20046;-57
2022/01/30 12:20:56;;;;;;;24.25;3.88;;;;;;;11.78;48.00;103212.63;4990617;28;20080;-58
2022/01/30 12:23:25;;;;;;;27.20;4.03;;;;;;;11.73;47.52;103203.63;4986715;28;20041;-58
2022/01/30 12:26:09;;;;;;;25.25;3.75;;;;;;;11.65;47.13;103195.44;4984994;28;20057;-57